ID Time Temp Humidity Light PM2.5 PM10 Voltage Extra Firmware Position Fcnt Gateways Distance RSSI LSNR Radiosettings
494 2020-04-04 15:00:41 13.3125°C 92.5625% 3.34V v2 No position 677 eui-aa555a0000088183 - -111 -6.2 867.5Mhz, SF9BW125, 4/5CR
494 2020-04-04 14:45:10 13.25°C 93.5625% 3.34V v2 No position 676 eui-aa555a0000088183 - -107 -0.5 868.1Mhz, SF9BW125, 4/5CR
494 2020-04-04 14:29:39 13.1875°C 93.9375% 3.34V v2 No position 675 eui-aa555a0000088183 - -109 4.5 867.3Mhz, SF9BW125, 4/5CR
494 2020-04-04 13:58:44 13°C 98.3125% 3.34V v2 No position 673 eui-aa555a0000088183 - -114 6.5 867.1Mhz, SF9BW125, 4/5CR
494 2020-04-04 13:43:06 12.9375°C 99.4375% 3.34V v2 No position 672 eui-aa555a0000088183 - -115 4.8 867.9Mhz, SF9BW125, 4/5CR
494 2020-04-04 13:27:36 12.875°C 99.5625% 3.34V v2 No position 671 eui-aa555a0000088183 - -108 -8.8 868.5Mhz, SF9BW125, 4/5CR
494 2020-04-04 13:12:05 12.8125°C 98.4375% 3.34V v2 No position 670 eui-aa555a0000088183 - -111 7.2 867.7Mhz, SF9BW125, 4/5CR
494 2020-04-04 12:56:35 12.75°C 97.0625% 3.34V v2 No position 669 eui-aa555a0000088183 - -102 -11 868.3Mhz, SF9BW125, 4/5CR
494 2020-04-04 12:41:04 12.6875°C 95.5625% 3.34V v2 No position 668 eui-aa555a0000088183 - -106 2.5 867.5Mhz, SF9BW125, 4/5CR
494 2020-04-04 12:25:32 12.625°C 94.3125% 3.34V v2 No position 667 eui-aa555a0000088183 - -108 8.8 868.1Mhz, SF9BW125, 4/5CR
494 2020-04-04 12:10:02 12.5625°C 94.4375% 3.34V v2 No position 666 eui-aa555a0000088183 - -109 8 867.3Mhz, SF9BW125, 4/5CR
494 2020-04-04 11:39:01 12.5°C 98.75% 3.34V v2 No position 664 eui-aa555a0000088183 - -117 4.2 867.1Mhz, SF9BW125, 4/5CR
494 2020-04-04 11:08:00 12.5°C 105.5% 3.34V v2 No position 662 eui-aa555a0000088183 - -109 7 867.9Mhz, SF9BW125, 4/5CR
494 2020-04-04 10:52:29 12.5°C 106.812% 3.34V v2 No position 661 eui-aa555a0000088183 - -108 4 868.1Mhz, SF9BW125, 4/5CR
494 2020-04-04 10:37:05 12.4375°C 106.688% 3.34V v2 No position 660 eui-aa555a0000088183 - -111 8.2 867.7Mhz, SF9BW125, 4/5CR
494 2020-04-04 10:21:28 12.375°C 106.5% 3.34V v2 No position 659 eui-aa555a0000088183 - -102 -0.2 867.5Mhz, SF9BW125, 4/5CR
494 2020-04-04 10:05:57 12.375°C 106.375% 3.34V v2 No position 658 eui-aa555a0000088183 - -113 5.5 868.1Mhz, SF9BW125, 4/5CR
494 2020-04-04 09:50:26 12.375°C 106.438% 3.34V v2 No position 657 eui-aa555a0000088183 - -113 6.5 867.3Mhz, SF9BW125, 4/5CR
494 2020-04-04 09:34:56 12.375°C 106.625% 3.34V v2 No position 656 eui-aa555a0000088183 - -101 -4.5 868.5Mhz, SF9BW125, 4/5CR
494 2020-04-04 09:19:25 12.375°C 106.812% 3.34V v2 No position 655 eui-aa555a0000088183 - -109 8.5 867.1Mhz, SF9BW125, 4/5CR
494 2020-04-04 09:03:56 12.375°C 107.062% 3.34V v2 No position 654 eui-aa555a0000088183 - -103 -4.8 868.3Mhz, SF9BW125, 4/5CR
494 2020-04-04 08:48:25 12.375°C 107.5% 3.34V v2 No position 653 eui-aa555a0000088183 - -109 9.2 867.9Mhz, SF9BW125, 4/5CR
494 2020-04-04 08:32:54 12.3125°C 107.438% 3.34V v2 No position 652 eui-aa555a0000088183 - -111 7.2 868.1Mhz, SF9BW125, 4/5CR
494 2020-04-04 08:17:23 12.25°C 107.438% 3.34V v2 No position 651 eui-aa555a0000088183 - -105 9.5 867.7Mhz, SF9BW125, 4/5CR
494 2020-04-04 08:01:53 12.25°C 106.812% 3.34V v2 No position 650 eui-aa555a0000088183 - -103 -2.5 868.5Mhz, SF9BW125, 4/5CR
494 2020-04-04 07:46:22 12.1875°C 106.188% 3.34V v2 No position 649 eui-aa555a0000088183 - -103 3.2 867.5Mhz, SF9BW125, 4/5CR
494 2020-04-04 07:30:52 12.125°C 106.062% 3.34V v2 No position 648 eui-aa555a0000088183 - -107 2.5 868.3Mhz, SF9BW125, 4/5CR
494 2020-04-04 07:15:28 12°C 107.438% 3.34V v2 No position 647 eui-aa555a0000088183 - -109 6.5 867.3Mhz, SF9BW125, 4/5CR
494 2020-04-04 06:59:52 12°C 108.188% 3.34V v2 No position 646 eui-aa555a0000088183 - -109 8.5 867.1Mhz, SF9BW125, 4/5CR
494 2020-04-04 06:44:22 12°C 108.375% 3.34V v2 No position 645 eui-aa555a0000088183 - -111 -1 868.3Mhz, SF9BW125, 4/5CR
494 2020-04-04 06:28:50 12.0625°C 108.562% 3.34V v2 No position 644 eui-aa555a0000088183 - -108 8.8 867.9Mhz, SF9BW125, 4/5CR
494 2020-04-04 06:13:21 12.0625°C 108.688% 3.34V v2 No position 643 eui-aa555a0000088183 - -107 0.5 868.1Mhz, SF9BW125, 4/5CR
494 2020-04-04 05:57:49 12.0625°C 108.75% 3.34V v2 No position 642 eui-aa555a0000088183 - -108 8.2 867.7Mhz, SF9BW125, 4/5CR
494 2020-04-04 05:42:19 12.125°C 108.812% 3.34V v2 No position 641 eui-aa555a0000088183 - -105 -1.5 868.5Mhz, SF9BW125, 4/5CR
494 2020-04-04 05:26:49 12.125°C 108.812% 3.34V v2 No position 640 eui-aa555a0000088183 - -100 0.2 867.5Mhz, SF9BW125, 4/5CR
494 2020-04-04 05:11:18 12.1875°C 108.875% 3.34V v2 No position 639 eui-aa555a0000088183 - -101 1.8 868.3Mhz, SF9BW125, 4/5CR
494 2020-04-04 04:55:48 12.25°C 108.875% 3.34V v2 No position 638 eui-aa555a0000088183 - -109 8.8 867.3Mhz, SF9BW125, 4/5CR
494 2020-04-04 04:40:18 12.3125°C 108.875% 3.34V v2 No position 637 eui-aa555a0000088183 - -108 7.8 868.1Mhz, SF9BW125, 4/5CR
494 2020-04-04 04:24:47 12.375°C 108.875% 3.34V v2 No position 636 eui-aa555a0000088183 - -113 9.2 867.1Mhz, SF9BW125, 4/5CR
494 2020-04-04 03:53:45 12.5°C 108.875% 3.34V v2 No position 634 eui-aa555a0000088183 - -108 10.2 867.9Mhz, SF9BW125, 4/5CR
494 2020-04-04 03:38:15 12.5625°C 108.875% 3.34V v2 No position 633 eui-aa555a0000088183 - -102 -2.2 868.3Mhz, SF9BW125, 4/5CR
494 2020-04-04 03:22:44 12.5625°C 108.875% 3.34V v2 No position 632 eui-aa555a0000088183 - -107 9.8 867.7Mhz, SF9BW125, 4/5CR
494 2020-04-04 03:07:14 12.625°C 108.875% 3.34V v2 No position 631 eui-aa555a0000088183 - -104 8 868.1Mhz, SF9BW125, 4/5CR
494 2020-04-04 02:51:43 12.6875°C 108.875% 3.34V v2 No position 630 eui-aa555a0000088183 - -105 0 867.5Mhz, SF9BW125, 4/5CR
494 2020-04-04 02:36:12 12.75°C 108.875% 3.34V v2 No position 629 eui-aa555a0000088183 - -105 0.5 868.5Mhz, SF9BW125, 4/5CR
494 2020-04-04 02:20:42 12.8125°C 108.875% 3.34V v2 No position 628 eui-aa555a0000088183 - -113 6.8 867.3Mhz, SF9BW125, 4/5CR
494 2020-04-04 01:49:40 12.9375°C 108.938% 3.34V v2 No position 626 eui-aa555a0000088183 - -111 9.2 867.1Mhz, SF9BW125, 4/5CR
494 2020-04-04 01:34:09 13.0625°C 109% 3.34V v2 No position 625 eui-aa555a0000088183 - -107 6.8 868.1Mhz, SF9BW125, 4/5CR
494 2020-04-04 01:18:38 13.125°C 109.062% 3.34V v2 No position 624 eui-aa555a0000088183 - -105 9.5 867.9Mhz, SF9BW125, 4/5CR
494 2020-04-04 01:03:08 13.25°C 109.125% 3.34V v2 No position 623 eui-aa555a0000088183 - -96 -2.2 868.5Mhz, SF9BW125, 4/5CR

Message count: 50

Node count: 1

Messages per node

Number of messages in list aboveNodes
50494

Statistics per gateway

GatewayNumber of messagesNumber of nodesNodes
eui-aa555a0000088183 (filter)501494

Filter by dataset